x

Capers Nearshore (cap 2) (41029) Weather Station

11:08am - Sun 7th Feb 2016 All times are EST. -5 hours from GMT.

  • Wind
    22mph, 29mph gusts
  • Air Temp 42°f
  • Sea Pressure 1012.7mb
  • Capers Nearshore (cap 2)
  • Capers Nearshore (cap 2)

More Historic Weather Station data

Upgrade to MSW Pro to gain access to the past 30 days of data for over 8000 Wavebouys and Weather Stations around the globe.

Join Pro

Comparision Forecast

View Surf forecast
   
Sun 02/07 11:08am 22 29 mph 1012.7mb 42f
10:08am 20 27 mph 1012.7mb 42f
9:08am 20 27 mph 1012.3mb 42f
8:08am 22 31 mph 1011.2mb 42f
7:08am 27 34 mph 1011.4mb 43f
6:08am 27 36 mph 1013.6mb 43f
5:08am 25 34 mph 1014.1mb 42f
4:08am 25 34 mph 1014.7mb 42f
3:08am 29 36 mph 1015.1mb 42f
2:08am 31 40 mph 1015mb 41f
1:08am 31 40 mph 1016.7mb 42f
12:08am 27 36 mph 1018.6mb 43f
Sat 02/06 11:08pm 29 38 mph 1019.1mb 43f
10:08pm 27 34 mph 1021.1mb 44f
9:08pm 25 31 mph 1021.3mb 45f
8:08pm 25 31 mph 1022mb 45f
7:08pm 20 25 mph 1022.9mb 45f
6:08pm 20 27 mph 1023.1mb 46f
5:08pm 22 29 mph 1023.4mb 48f
4:08pm 20 27 mph 1023.5mb 48f
3:08pm 20 27 mph 1023mb 49f
2:08pm 22 27 mph 1023.7mb 49f
1:08pm 25 31 mph 1024.5mb 49f
12:08pm 25 34 mph 1025.9mb 49f
11:08am 22 27 mph 1027.6mb 48f
10:08am 22 27 mph 1028.1mb 47f
9:08am 22 29 mph 1027.8mb 47f
8:08am 25 31 mph 1027.6mb 47f
7:08am 25 31 mph 1027.1mb 46f
6:08am 20 27 mph 1026.9mb 46f
5:08am 20 25 mph 1026.9mb 47f
4:08am 18 22 mph 1026.2mb 47f
3:08am 13 22 mph 1027.4mb 48f
2:08am 16 22 mph 1027.8mb 48f
1:08am 16 20 mph 1028mb 48f
12:08am 13 20 mph 1027.9mb 49f
Fri 02/05 11:08pm 16 22 mph 1028.1mb 49f
10:08pm 16 20 mph 1028mb 49f
9:08pm 16 20 mph 1027.8mb 50f
8:08pm 13 20 mph 1027.8mb 50f
7:08pm 13 18 mph 1026.9mb 50f
6:08pm 13 18 mph 1025.4mb 51f
5:08pm 13 18 mph 1025.3mb 51f
4:08pm 11 16 mph 1025.5mb 51f
3:08pm 13 18 mph 1025.2mb 50f
2:08pm 11 18 mph 1025.6mb 49f
1:08pm 13 18 mph 1025.7mb 49f
12:08pm 13 18 mph 1026.1mb 49f
11:08am 18 25 mph 1025.7mb 48f
10:08am 22 31 mph 1025.4mb 48f
9:08am 25 36 mph 1024.3mb 47f
8:08am 22 29 mph 1022.4mb 48f
7:08am 25 31 mph 1021mb 49f
6:08am 22 29 mph 1019.1mb 48f
5:08am 25 31 mph 1017.2mb 48f
4:08am 25 29 mph 1015.3mb 49f
3:08am 22 31 mph 1015mb 50f
2:08am 22 34 mph 1014.1mb 53f
1:08am 18 25 mph 1014.8mb 55f
12:08am 16 20 mph 1014.4mb 54f
Thu 02/04 11:08pm 13 18 mph 1014.9mb 54f
10:08pm 13 18 mph 1015.3mb 54f
9:08pm 13 16 mph 1013.2mb 53f
8:08pm 7 11 mph 1014.7mb 54f
7:08pm 20 27 mph 1013.8mb 55f
6:08pm 13 18 mph 1012.7mb 58f
5:08pm 4 9 mph 1013.1mb 60f
4:08pm 13 16 mph 1013.9mb 62f
3:08pm 13 18 mph 1014.3mb 60f
2:08pm 11 16 mph 1015.7mb 60f
1:08pm 4 7 mph 1015.8mb 59f
12:08pm 7 11 mph 1017.2mb 59f
11:08am 11 13 mph 1017mb 58f
10:08am 11 16 mph 1017.8mb 60f
9:08am 11 16 mph 1016.8mb 59f
8:08am 11 13 mph 1015.5mb 60f
7:08am 11 16 mph 1015.3mb 60f
6:08am 9 11 mph 1014.9mb 60f
5:08am 9 13 mph 1015.2mb 60f
4:08am 7 9 mph 1014.4mb 59f
3:08am 4 7 mph 1015.6mb 60f
2:08am 4 7 mph 1014.9mb 59f
1:08am 7 11 mph 1015.5mb 60f
12:08am 9 11 mph 1016.4mb 61f
Wed 02/03 11:08pm 7 13 mph 1016.8mb 62f
10:08pm 13 18 mph 1016mb 62f
9:08pm 13 18 mph 1015.8mb 62f
8:08pm 9 11 mph 1016.1mb 61f
7:08pm 11 13 mph 1015.8mb 61f
6:08pm 7 11 mph 1015.5mb 61f